sensor_id;sensor_type;location;lat;lon;timestamp;P1;durP1;ratioP1;P2;durP2;ratioP2
54937;SDS011;52756;52.826;6.214;2022-07-17T00:02:24;2.28;;;1.15;;
54937;SDS011;52756;52.826;6.214;2022-07-17T00:04:49;2.45;;;1.08;;
54937;SDS011;52756;52.826;6.214;2022-07-17T00:07:15;3.53;;;1.40;;
54937;SDS011;52756;52.826;6.214;2022-07-17T00:09:41;2.20;;;1.35;;
54937;SDS011;52756;52.826;6.214;2022-07-17T00:12:06;3.38;;;1.42;;
54937;SDS011;52756;52.826;6.214;2022-07-17T00:14:32;3.25;;;1.20;;
54937;SDS011;52756;52.826;6.214;2022-07-17T00:16:58;4.00;;;2.00;;
54937;SDS011;52756;52.826;6.214;2022-07-17T00:19:24;2.97;;;1.55;;
54937;SDS011;52756;52.826;6.214;2022-07-17T00:21:50;5.22;;;1.80;;
54937;SDS011;52756;52.826;6.214;2022-07-17T00:24:16;3.22;;;1.50;;
54937;SDS011;52756;52.826;6.214;2022-07-17T00:26:48;4.70;;;1.98;;
54937;SDS011;52756;52.826;6.214;2022-07-17T00:29:16;3.03;;;1.50;;
54937;SDS011;52756;52.826;6.214;2022-07-17T00:31:43;4.00;;;1.90;;
54937;SDS011;52756;52.826;6.214;2022-07-17T00:34:09;2.97;;;1.90;;
54937;SDS011;52756;52.826;6.214;2022-07-17T00:36:36;4.40;;;2.17;;
54937;SDS011;52756;52.826;6.214;2022-07-17T00:39:01;4.72;;;2.25;;
54937;SDS011;52756;52.826;6.214;2022-07-17T00:41:27;3.78;;;1.80;;
54937;SDS011;52756;52.826;6.214;2022-07-17T00:43:53;3.30;;;1.52;;
54937;SDS011;52756;52.826;6.214;2022-07-17T00:46:19;4.13;;;1.63;;
54937;SDS011;52756;52.826;6.214;2022-07-17T00:48:46;3.55;;;1.60;;
54937;SDS011;52756;52.826;6.214;2022-07-17T00:51:11;3.65;;;1.55;;
54937;SDS011;52756;52.826;6.214;2022-07-17T00:53:37;2.33;;;1.38;;
54937;SDS011;52756;52.826;6.214;2022-07-17T00:56:05;4.20;;;1.73;;
54937;SDS011;52756;52.826;6.214;2022-07-17T00:58:33;4.22;;;1.80;;
54937;SDS011;52756;52.826;6.214;2022-07-17T01:01:02;4.35;;;1.40;;
54937;SDS011;52756;52.826;6.214;2022-07-17T01:03:31;5.57;;;1.88;;
54937;SDS011;52756;52.826;6.214;2022-07-17T01:05:57;4.82;;;2.05;;
54937;SDS011;52756;52.826;6.214;2022-07-17T01:08:22;4.32;;;2.25;;
54937;SDS011;52756;52.826;6.214;2022-07-17T01:10:48;3.33;;;2.17;;
54937;SDS011;52756;52.826;6.214;2022-07-17T01:13:14;6.22;;;2.03;;
54937;SDS011;52756;52.826;6.214;2022-07-17T01:15:40;4.05;;;1.88;;
54937;SDS011;52756;52.826;6.214;2022-07-17T01:18:10;4.65;;;1.73;;
54937;SDS011;52756;52.826;6.214;2022-07-17T01:20:38;3.35;;;1.63;;
54937;SDS011;52756;52.826;6.214;2022-07-17T01:23:05;3.22;;;1.63;;
54937;SDS011;52756;52.826;6.214;2022-07-17T01:25:31;3.05;;;1.30;;
54937;SDS011;52756;52.826;6.214;2022-07-17T01:27:57;3.05;;;1.30;;
54937;SDS011;52756;52.826;6.214;2022-07-17T01:30:24;3.75;;;1.38;;
54937;SDS011;52756;52.826;6.214;2022-07-17T01:32:49;2.13;;;1.27;;
54937;SDS011;52756;52.826;6.214;2022-07-17T01:35:15;2.28;;;1.20;;
54937;SDS011;52756;52.826;6.214;2022-07-17T01:37:42;3.35;;;1.50;;
54937;SDS011;52756;52.826;6.214;2022-07-17T01:40:09;2.83;;;1.63;;
54937;SDS011;52756;52.826;6.214;2022-07-17T01:42:38;4.03;;;1.40;;
54937;SDS011;52756;52.826;6.214;2022-07-17T01:45:06;2.83;;;1.38;;
54937;SDS011;52756;52.826;6.214;2022-07-17T01:47:32;2.95;;;1.38;;
54937;SDS011;52756;52.826;6.214;2022-07-17T01:49:59;2.67;;;1.58;;
54937;SDS011;52756;52.826;6.214;2022-07-17T01:52:25;4.38;;;1.30;;
54937;SDS011;52756;52.826;6.214;2022-07-17T01:54:52;3.63;;;1.40;;
54937;SDS011;52756;52.826;6.214;2022-07-17T01:57:18;4.90;;;1.40;;
54937;SDS011;52756;52.826;6.214;2022-07-17T01:59:44;3.42;;;1.25;;
54937;SDS011;52756;52.826;6.214;2022-07-17T02:02:10;3.88;;;1.52;;
54937;SDS011;52756;52.826;6.214;2022-07-17T02:04:37;3.17;;;1.20;;
54937;SDS011;52756;52.826;6.214;2022-07-17T02:07:03;4.93;;;1.55;;
54937;SDS011;52756;52.826;6.214;2022-07-17T02:09:29;4.35;;;1.05;;
54937;SDS011;52756;52.826;6.214;2022-07-17T02:11:55;2.70;;;1.27;;
54937;SDS011;52756;52.826;6.214;2022-07-17T02:14:21;3.60;;;1.15;;
54937;SDS011;52756;52.826;6.214;2022-07-17T02:16:47;2.80;;;1.15;;
54937;SDS011;52756;52.826;6.214;2022-07-17T02:19:13;1.77;;;1.00;;
54937;SDS011;52756;52.826;6.214;2022-07-17T02:21:38;2.33;;;1.10;;
54937;SDS011;52756;52.826;6.214;2022-07-17T02:24:05;2.97;;;1.33;;
54937;SDS011;52756;52.826;6.214;2022-07-17T02:26:31;2.28;;;1.10;;
54937;SDS011;52756;52.826;6.214;2022-07-17T02:28:56;2.65;;;1.00;;
54937;SDS011;52756;52.826;6.214;2022-07-17T02:31:22;2.92;;;0.90;;
54937;SDS011;52756;52.826;6.214;2022-07-17T02:33:48;1.85;;;0.90;;
54937;SDS011;52756;52.826;6.214;2022-07-17T02:36:14;2.72;;;1.08;;
54937;SDS011;52756;52.826;6.214;2022-07-17T02:38:39;2.85;;;1.27;;
54937;SDS011;52756;52.826;6.214;2022-07-17T02:41:05;1.38;;;0.88;;
54937;SDS011;52756;52.826;6.214;2022-07-17T02:43:31;2.00;;;0.93;;
54937;SDS011;52756;52.826;6.214;2022-07-17T02:45:57;1.90;;;1.02;;
54937;SDS011;52756;52.826;6.214;2022-07-17T02:48:22;2.05;;;0.98;;
54937;SDS011;52756;52.826;6.214;2022-07-17T02:50:48;1.67;;;1.02;;
54937;SDS011;52756;52.826;6.214;2022-07-17T02:53:14;1.52;;;1.00;;
54937;SDS011;52756;52.826;6.214;2022-07-17T02:55:39;3.40;;;1.00;;
54937;SDS011;52756;52.826;6.214;2022-07-17T02:58:05;2.38;;;1.10;;
54937;SDS011;52756;52.826;6.214;2022-07-17T03:00:31;2.15;;;0.90;;
54937;SDS011;52756;52.826;6.214;2022-07-17T03:02:56;1.63;;;1.10;;
54937;SDS011;52756;52.826;6.214;2022-07-17T03:05:22;2.42;;;1.13;;
54937;SDS011;52756;52.826;6.214;2022-07-17T03:07:48;2.05;;;0.93;;
54937;SDS011;52756;52.826;6.214;2022-07-17T03:10:14;2.70;;;0.90;;
54937;SDS011;52756;52.826;6.214;2022-07-17T03:12:40;2.13;;;0.88;;
54937;SDS011;52756;52.826;6.214;2022-07-17T03:15:07;1.52;;;0.80;;
54937;SDS011;52756;52.826;6.214;2022-07-17T03:17:33;1.98;;;0.80;;
54937;SDS011;52756;52.826;6.214;2022-07-17T03:19:59;3.08;;;1.17;;
54937;SDS011;52756;52.826;6.214;2022-07-17T03:22:25;1.67;;;0.80;;
54937;SDS011;52756;52.826;6.214;2022-07-17T03:24:51;1.35;;;0.70;;
54937;SDS011;52756;52.826;6.214;2022-07-17T03:27:17;1.27;;;0.80;;
54937;SDS011;52756;52.826;6.214;2022-07-17T03:29:43;1.77;;;0.93;;
54937;SDS011;52756;52.826;6.214;2022-07-17T03:32:09;3.03;;;0.90;;
54937;SDS011;52756;52.826;6.214;2022-07-17T03:34:35;2.67;;;1.30;;
54937;SDS011;52756;52.826;6.214;2022-07-17T03:37:02;2.15;;;0.80;;
54937;SDS011;52756;52.826;6.214;2022-07-17T03:39:29;3.25;;;0.95;;
54937;SDS011;52756;52.826;6.214;2022-07-17T03:41:55;2.20;;;1.02;;
54937;SDS011;52756;52.826;6.214;2022-07-17T03:44:21;1.83;;;1.00;;
54937;SDS011;52756;52.826;6.214;2022-07-17T03:46:47;1.08;;;0.70;;
54937;SDS011;52756;52.826;6.214;2022-07-17T03:49:13;1.42;;;0.90;;
54937;SDS011;52756;52.826;6.214;2022-07-17T03:51:38;1.10;;;0.70;;
54937;SDS011;52756;52.826;6.214;2022-07-17T03:54:04;2.15;;;0.90;;
54937;SDS011;52756;52.826;6.214;2022-07-17T03:56:30;5.28;;;1.42;;
54937;SDS011;52756;52.826;6.214;2022-07-17T03:58:55;1.50;;;0.80;;
54937;SDS011;52756;52.826;6.214;2022-07-17T04:01:21;1.30;;;0.80;;
54937;SDS011;52756;52.826;6.214;2022-07-17T04:03:47;2.67;;;0.90;;
54937;SDS011;52756;52.826;6.214;2022-07-17T04:06:15;1.30;;;0.95;;
54937;SDS011;52756;52.826;6.214;2022-07-17T04:08:41;2.00;;;0.95;;
54937;SDS011;52756;52.826;6.214;2022-07-17T04:11:07;2.30;;;0.88;;
54937;SDS011;52756;52.826;6.214;2022-07-17T04:13:33;1.90;;;0.90;;
54937;SDS011;52756;52.826;6.214;2022-07-17T04:15:59;2.47;;;1.40;;
54937;SDS011;52756;52.826;6.214;2022-07-17T04:18:30;1.60;;;0.90;;
54937;SDS011;52756;52.826;6.214;2022-07-17T04:21:01;3.22;;;1.08;;
54937;SDS011;52756;52.826;6.214;2022-07-17T04:23:29;2.28;;;0.93;;
54937;SDS011;52756;52.826;6.214;2022-07-17T04:25:55;4.28;;;1.08;;
54937;SDS011;52756;52.826;6.214;2022-07-17T04:28:21;1.60;;;1.00;;
54937;SDS011;52756;52.826;6.214;2022-07-17T04:30:47;2.17;;;1.17;;
54937;SDS011;52756;52.826;6.214;2022-07-17T04:33:13;3.28;;;0.98;;
54937;SDS011;52756;52.826;6.214;2022-07-17T04:35:40;2.70;;;1.42;;
54937;SDS011;52756;52.826;6.214;2022-07-17T04:38:06;3.05;;;1.30;;
54937;SDS011;52756;52.826;6.214;2022-07-17T04:40:33;2.97;;;1.45;;
54937;SDS011;52756;52.826;6.214;2022-07-17T04:42:59;1.80;;;1.13;;
54937;SDS011;52756;52.826;6.214;2022-07-17T04:45:25;2.15;;;1.40;;
54937;SDS011;52756;52.826;6.214;2022-07-17T04:47:51;4.10;;;1.70;;
54937;SDS011;52756;52.826;6.214;2022-07-17T04:50:16;3.63;;;1.35;;
54937;SDS011;52756;52.826;6.214;2022-07-17T04:52:42;3.17;;;1.30;;
54937;SDS011;52756;52.826;6.214;2022-07-17T04:55:08;2.88;;;1.50;;
54937;SDS011;52756;52.826;6.214;2022-07-17T04:57:34;2.97;;;1.70;;
54937;SDS011;52756;52.826;6.214;2022-07-17T05:00:00;3.63;;;1.38;;
54937;SDS011;52756;52.826;6.214;2022-07-17T05:02:28;2.78;;;1.20;;
54937;SDS011;52756;52.826;6.214;2022-07-17T05:04:54;3.95;;;1.20;;
54937;SDS011;52756;52.826;6.214;2022-07-17T05:07:19;2.08;;;1.00;;
54937;SDS011;52756;52.826;6.214;2022-07-17T05:09:45;3.08;;;1.50;;
54937;SDS011;52756;52.826;6.214;2022-07-17T05:12:11;5.80;;;1.65;;
54937;SDS011;52756;52.826;6.214;2022-07-17T05:14:36;5.47;;;2.08;;
54937;SDS011;52756;52.826;6.214;2022-07-17T05:17:02;5.22;;;1.83;;
54937;SDS011;52756;52.826;6.214;2022-07-17T05:19:28;2.50;;;1.15;;
54937;SDS011;52756;52.826;6.214;2022-07-17T05:21:54;3.70;;;1.52;;
54937;SDS011;52756;52.826;6.214;2022-07-17T05:24:20;4.18;;;1.23;;
54937;SDS011;52756;52.826;6.214;2022-07-17T05:26:45;2.92;;;1.48;;
54937;SDS011;52756;52.826;6.214;2022-07-17T05:29:11;5.30;;;1.83;;
54937;SDS011;52756;52.826;6.214;2022-07-17T05:31:36;2.88;;;0.95;;
54937;SDS011;52756;52.826;6.214;2022-07-17T05:34:02;2.97;;;1.38;;
54937;SDS011;52756;52.826;6.214;2022-07-17T05:36:28;3.00;;;1.10;;
54937;SDS011;52756;52.826;6.214;2022-07-17T05:38:53;2.33;;;0.93;;
54937;SDS011;52756;52.826;6.214;2022-07-17T05:41:19;3.35;;;1.00;;
54937;SDS011;52756;52.826;6.214;2022-07-17T05:43:45;2.80;;;1.30;;
54937;SDS011;52756;52.826;6.214;2022-07-17T05:46:11;3.00;;;1.10;;
54937;SDS011;52756;52.826;6.214;2022-07-17T05:48:36;3.67;;;1.40;;
54937;SDS011;52756;52.826;6.214;2022-07-17T05:51:02;3.75;;;1.20;;
54937;SDS011;52756;52.826;6.214;2022-07-17T05:53:28;4.30;;;1.50;;
54937;SDS011;52756;52.826;6.214;2022-07-17T05:55:54;2.92;;;1.63;;
54937;SDS011;52756;52.826;6.214;2022-07-17T05:58:20;3.20;;;1.60;;
54937;SDS011;52756;52.826;6.214;2022-07-17T06:00:45;2.95;;;1.35;;
54937;SDS011;52756;52.826;6.214;2022-07-17T06:03:14;4.55;;;1.67;;
54937;SDS011;52756;52.826;6.214;2022-07-17T06:05:39;4.15;;;1.38;;
54937;SDS011;52756;52.826;6.214;2022-07-17T06:08:05;5.88;;;1.77;;
54937;SDS011;52756;52.826;6.214;2022-07-17T06:10:32;4.93;;;1.40;;
54937;SDS011;52756;52.826;6.214;2022-07-17T06:12:58;5.88;;;1.55;;
54937;SDS011;52756;52.826;6.214;2022-07-17T06:15:24;4.13;;;1.10;;
54937;SDS011;52756;52.826;6.214;2022-07-17T06:17:49;4.88;;;1.55;;
54937;SDS011;52756;52.826;6.214;2022-07-17T06:20:16;5.22;;;1.42;;
54937;SDS011;52756;52.826;6.214;2022-07-17T06:22:42;4.85;;;1.25;;
54937;SDS011;52756;52.826;6.214;2022-07-17T06:25:09;4.38;;;1.35;;
54937;SDS011;52756;52.826;6.214;2022-07-17T06:27:38;2.38;;;1.08;;
54937;SDS011;52756;52.826;6.214;2022-07-17T06:30:05;3.60;;;0.90;;
54937;SDS011;52756;52.826;6.214;2022-07-17T06:32:31;2.83;;;1.10;;
54937;SDS011;52756;52.826;6.214;2022-07-17T06:34:57;5.30;;;1.13;;
54937;SDS011;52756;52.826;6.214;2022-07-17T06:37:23;2.78;;;1.23;;
54937;SDS011;52756;52.826;6.214;2022-07-17T06:39:48;4.03;;;1.60;;
54937;SDS011;52756;52.826;6.214;2022-07-17T06:42:14;5.00;;;1.27;;
54937;SDS011;52756;52.826;6.214;2022-07-17T06:44:39;3.97;;;0.98;;
54937;SDS011;52756;52.826;6.214;2022-07-17T06:47:05;6.25;;;1.75;;
54937;SDS011;52756;52.826;6.214;2022-07-17T06:49:31;5.03;;;1.00;;
54937;SDS011;52756;52.826;6.214;2022-07-17T06:51:56;2.97;;;0.93;;
54937;SDS011;52756;52.826;6.214;2022-07-17T06:54:22;3.67;;;0.98;;
54937;SDS011;52756;52.826;6.214;2022-07-17T06:56:51;5.18;;;1.45;;
54937;SDS011;52756;52.826;6.214;2022-07-17T06:59:18;4.03;;;1.05;;
54937;SDS011;52756;52.826;6.214;2022-07-17T07:01:44;3.50;;;1.00;;
54937;SDS011;52756;52.826;6.214;2022-07-17T07:04:10;3.88;;;0.88;;
54937;SDS011;52756;52.826;6.214;2022-07-17T07:06:36;4.50;;;1.02;;
54937;SDS011;52756;52.826;6.214;2022-07-17T07:09:02;3.53;;;1.10;;
54937;SDS011;52756;52.826;6.214;2022-07-17T07:11:28;5.38;;;1.30;;
54937;SDS011;52756;52.826;6.214;2022-07-17T07:13:54;4.40;;;1.00;;
54937;SDS011;52756;52.826;6.214;2022-07-17T07:16:20;3.05;;;1.10;;
54937;SDS011;52756;52.826;6.214;2022-07-17T07:18:46;3.78;;;0.90;;
54937;SDS011;52756;52.826;6.214;2022-07-17T07:21:12;4.00;;;0.82;;
54937;SDS011;52756;52.826;6.214;2022-07-17T07:23:37;3.25;;;0.80;;
54937;SDS011;52756;52.826;6.214;2022-07-17T07:26:03;5.78;;;0.93;;
54937;SDS011;52756;52.826;6.214;2022-07-17T07:28:29;3.53;;;0.85;;
54937;SDS011;52756;52.826;6.214;2022-07-17T07:30:54;4.22;;;0.85;;
54937;SDS011;52756;52.826;6.214;2022-07-17T07:33:20;3.13;;;0.82;;
54937;SDS011;52756;52.826;6.214;2022-07-17T07:35:46;3.80;;;0.95;;
54937;SDS011;52756;52.826;6.214;2022-07-17T07:38:11;5.55;;;0.88;;
54937;SDS011;52756;52.826;6.214;2022-07-17T07:40:37;3.00;;;0.90;;
54937;SDS011;52756;52.826;6.214;2022-07-17T07:43:03;2.83;;;0.85;;
54937;SDS011;52756;52.826;6.214;2022-07-17T07:45:28;6.97;;;1.10;;
54937;SDS011;52756;52.826;6.214;2022-07-17T07:47:56;4.40;;;1.05;;
54937;SDS011;52756;52.826;6.214;2022-07-17T07:50:22;3.90;;;0.80;;
54937;SDS011;52756;52.826;6.214;2022-07-17T07:52:49;4.75;;;1.00;;
54937;SDS011;52756;52.826;6.214;2022-07-17T07:55:15;3.55;;;1.10;;
54937;SDS011;52756;52.826;6.214;2022-07-17T07:57:41;5.20;;;1.40;;
54937;SDS011;52756;52.826;6.214;2022-07-17T08:00:07;5.90;;;1.00;;
54937;SDS011;52756;52.826;6.214;2022-07-17T08:02:35;2.58;;;0.65;;
54937;SDS011;52756;52.826;6.214;2022-07-17T08:05:00;3.05;;;0.90;;
54937;SDS011;52756;52.826;6.214;2022-07-17T08:07:26;4.30;;;1.10;;
54937;SDS011;52756;52.826;6.214;2022-07-17T08:09:53;4.22;;;1.05;;
54937;SDS011;52756;52.826;6.214;2022-07-17T08:12:19;4.63;;;1.33;;
54937;SDS011;52756;52.826;6.214;2022-07-17T08:14:45;2.78;;;0.80;;
54937;SDS011;52756;52.826;6.214;2022-07-17T08:17:10;4.05;;;1.08;;
54937;SDS011;52756;52.826;6.214;2022-07-17T08:19:36;4.40;;;0.77;;
54937;SDS011;52756;52.826;6.214;2022-07-17T08:22:02;4.68;;;1.15;;
54937;SDS011;52756;52.826;6.214;2022-07-17T08:24:27;5.05;;;0.98;;
54937;SDS011;52756;52.826;6.214;2022-07-17T08:26:53;5.57;;;0.90;;
54937;SDS011;52756;52.826;6.214;2022-07-17T08:29:20;2.72;;;0.95;;
54937;SDS011;52756;52.826;6.214;2022-07-17T08:31:45;2.60;;;0.60;;
54937;SDS011;52756;52.826;6.214;2022-07-17T08:34:11;3.28;;;0.75;;
54937;SDS011;52756;52.826;6.214;2022-07-17T08:36:39;2.97;;;0.70;;
54937;SDS011;52756;52.826;6.214;2022-07-17T08:39:04;5.50;;;1.30;;
54937;SDS011;52756;52.826;6.214;2022-07-17T08:41:30;2.60;;;0.82;;
54937;SDS011;52756;52.826;6.214;2022-07-17T08:43:55;4.15;;;1.00;;
54937;SDS011;52756;52.826;6.214;2022-07-17T08:46:25;4.22;;;1.08;;
54937;SDS011;52756;52.826;6.214;2022-07-17T08:48:53;3.08;;;0.90;;
54937;SDS011;52756;52.826;6.214;2022-07-17T08:51:25;4.03;;;0.95;;
54937;SDS011;52756;52.826;6.214;2022-07-17T08:53:52;3.90;;;0.90;;
54937;SDS011;52756;52.826;6.214;2022-07-17T08:56:18;5.38;;;1.50;;
54937;SDS011;52756;52.826;6.214;2022-07-17T08:58:45;4.40;;;1.10;;
54937;SDS011;52756;52.826;6.214;2022-07-17T09:01:10;2.90;;;0.63;;
54937;SDS011;52756;52.826;6.214;2022-07-17T09:03:38;2.10;;;0.70;;
54937;SDS011;52756;52.826;6.214;2022-07-17T09:06:16;5.30;;;1.13;;
54937;SDS011;52756;52.826;6.214;2022-07-17T09:08:45;4.20;;;1.20;;
54937;SDS011;52756;52.826;6.214;2022-07-17T09:11:11;3.10;;;0.85;;
54937;SDS011;52756;52.826;6.214;2022-07-17T09:13:37;4.30;;;1.15;;
54937;SDS011;52756;52.826;6.214;2022-07-17T09:16:10;2.90;;;0.90;;
54937;SDS011;52756;52.826;6.214;2022-07-17T09:18:48;3.33;;;1.15;;
54937;SDS011;52756;52.826;6.214;2022-07-17T09:21:19;2.92;;;0.85;;
54937;SDS011;52756;52.826;6.214;2022-07-17T09:24:03;3.65;;;1.08;;
54937;SDS011;52756;52.826;6.214;2022-07-17T09:26:30;5.85;;;1.00;;
54937;SDS011;52756;52.826;6.214;2022-07-17T09:28:57;3.92;;;1.40;;
54937;SDS011;52756;52.826;6.214;2022-07-17T09:31:26;4.43;;;1.27;;
54937;SDS011;52756;52.826;6.214;2022-07-17T09:33:53;3.38;;;0.82;;
54937;SDS011;52756;52.826;6.214;2022-07-17T09:36:20;3.45;;;1.00;;
54937;SDS011;52756;52.826;6.214;2022-07-17T09:38:46;4.63;;;0.93;;
54937;SDS011;52756;52.826;6.214;2022-07-17T09:41:17;3.70;;;0.85;;
54937;SDS011;52756;52.826;6.214;2022-07-17T09:46:22;3.33;;;1.07;;
54937;SDS011;52756;52.826;6.214;2022-07-17T09:49:09;5.95;;;1.15;;
54937;SDS011;52756;52.826;6.214;2022-07-17T09:51:39;5.50;;;1.42;;
54937;SDS011;52756;52.826;6.214;2022-07-17T09:54:08;3.30;;;0.93;;
54937;SDS011;52756;52.826;6.214;2022-07-17T09:56:38;4.32;;;1.10;;
54937;SDS011;52756;52.826;6.214;2022-07-17T09:59:11;4.70;;;1.50;;
54937;SDS011;52756;52.826;6.214;2022-07-17T10:01:38;4.50;;;0.90;;
54937;SDS011;52756;52.826;6.214;2022-07-17T10:04:05;3.80;;;0.80;;
54937;SDS011;52756;52.826;6.214;2022-07-17T10:06:32;3.13;;;1.05;;
54937;SDS011;52756;52.826;6.214;2022-07-17T10:08:58;4.13;;;0.90;;
54937;SDS011;52756;52.826;6.214;2022-07-17T10:11:25;2.10;;;0.70;;
54937;SDS011;52756;52.826;6.214;2022-07-17T10:13:54;2.47;;;0.95;;
54937;SDS011;52756;52.826;6.214;2022-07-17T10:16:25;5.35;;;1.10;;
54937;SDS011;52756;52.826;6.214;2022-07-17T10:18:52;4.00;;;1.15;;
54937;SDS011;52756;52.826;6.214;2022-07-17T10:21:20;3.95;;;0.80;;
54937;SDS011;52756;52.826;6.214;2022-07-17T10:26:16;3.38;;;1.00;;
54937;SDS011;52756;52.826;6.214;2022-07-17T10:28:43;1.95;;;1.08;;
54937;SDS011;52756;52.826;6.214;2022-07-17T10:31:10;3.17;;;1.25;;
54937;SDS011;52756;52.826;6.214;2022-07-17T10:34:04;4.45;;;1.27;;
54937;SDS011;52756;52.826;6.214;2022-07-17T10:36:38;3.88;;;1.02;;
54937;SDS011;52756;52.826;6.214;2022-07-17T10:39:15;3.40;;;1.10;;
54937;SDS011;52756;52.826;6.214;2022-07-17T10:41:54;3.65;;;1.00;;
54937;SDS011;52756;52.826;6.214;2022-07-17T10:44:28;4.93;;;1.13;;
54937;SDS011;52756;52.826;6.214;2022-07-17T10:46:57;2.28;;;1.15;;
54937;SDS011;52756;52.826;6.214;2022-07-17T10:49:23;2.00;;;1.10;;
54937;SDS011;52756;52.826;6.214;2022-07-17T10:51:50;2.80;;;1.02;;
54937;SDS011;52756;52.826;6.214;2022-07-17T10:54:16;1.63;;;0.82;;
54937;SDS011;52756;52.826;6.214;2022-07-17T10:56:43;3.35;;;1.13;;
54937;SDS011;52756;52.826;6.214;2022-07-17T10:59:10;3.28;;;0.90;;
54937;SDS011;52756;52.826;6.214;2022-07-17T11:01:36;3.63;;;1.13;;
54937;SDS011;52756;52.826;6.214;2022-07-17T11:04:02;4.35;;;1.15;;
54937;SDS011;52756;52.826;6.214;2022-07-17T11:08:57;3.65;;;1.38;;
54937;SDS011;52756;52.826;6.214;2022-07-17T11:11:36;3.85;;;1.08;;
54937;SDS011;52756;52.826;6.214;2022-07-17T11:14:09;2.25;;;0.88;;
54937;SDS011;52756;52.826;6.214;2022-07-17T11:16:35;3.45;;;1.20;;
54937;SDS011;52756;52.826;6.214;2022-07-17T11:19:02;3.70;;;1.33;;
54937;SDS011;52756;52.826;6.214;2022-07-17T11:21:28;2.33;;;1.38;;
54937;SDS011;52756;52.826;6.214;2022-07-17T11:23:55;2.97;;;1.38;;
54937;SDS011;52756;52.826;6.214;2022-07-17T11:26:22;2.75;;;1.15;;
54937;SDS011;52756;52.826;6.214;2022-07-17T11:28:49;3.80;;;1.15;;
54937;SDS011;52756;52.826;6.214;2022-07-17T11:31:21;3.90;;;1.40;;
54937;SDS011;52756;52.826;6.214;2022-07-17T11:33:49;3.33;;;1.20;;
54937;SDS011;52756;52.826;6.214;2022-07-17T11:36:23;2.60;;;1.17;;
54937;SDS011;52756;52.826;6.214;2022-07-17T11:38:56;2.03;;;1.10;;
54937;SDS011;52756;52.826;6.214;2022-07-17T11:41:33;2.45;;;1.25;;
54937;SDS011;52756;52.826;6.214;2022-07-17T11:44:05;3.65;;;1.40;;
54937;SDS011;52756;52.826;6.214;2022-07-17T11:46:34;2.92;;;1.42;;
54937;SDS011;52756;52.826;6.214;2022-07-17T11:49:02;3.22;;;1.65;;
54937;SDS011;52756;52.826;6.214;2022-07-17T11:51:46;4.40;;;1.30;;
54937;SDS011;52756;52.826;6.214;2022-07-17T11:54:13;3.33;;;1.25;;
54937;SDS011;52756;52.826;6.214;2022-07-17T11:56:41;4.10;;;1.42;;
54937;SDS011;52756;52.826;6.214;2022-07-17T11:59:07;2.75;;;1.35;;
54937;SDS011;52756;52.826;6.214;2022-07-17T12:01:39;2.88;;;1.08;;
54937;SDS011;52756;52.826;6.214;2022-07-17T12:04:09;2.50;;;1.27;;
54937;SDS011;52756;52.826;6.214;2022-07-17T12:06:39;3.33;;;1.48;;
54937;SDS011;52756;52.826;6.214;2022-07-17T12:09:05;3.20;;;1.63;;
54937;SDS011;52756;52.826;6.214;2022-07-17T12:11:31;3.55;;;1.80;;
54937;SDS011;52756;52.826;6.214;2022-07-17T12:14:05;3.22;;;1.45;;
54937;SDS011;52756;52.826;6.214;2022-07-17T12:16:34;3.53;;;1.35;;
54937;SDS011;52756;52.826;6.214;2022-07-17T12:21:34;5.65;;;1.88;;
54937;SDS011;52756;52.826;6.214;2022-07-17T12:24:26;7.47;;;1.70;;
54937;SDS011;52756;52.826;6.214;2022-07-17T12:27:03;3.40;;;1.65;;
54937;SDS011;52756;52.826;6.214;2022-07-17T12:29:30;3.20;;;1.92;;
54937;SDS011;52756;52.826;6.214;2022-07-17T12:32:03;6.60;;;1.85;;
54937;SDS011;52756;52.826;6.214;2022-07-17T12:34:31;3.45;;;2.13;;
54937;SDS011;52756;52.826;6.214;2022-07-17T12:36:57;3.05;;;2.10;;
54937;SDS011;52756;52.826;6.214;2022-07-17T12:39:23;3.67;;;2.10;;
54937;SDS011;52756;52.826;6.214;2022-07-17T12:41:48;3.42;;;1.77;;
54937;SDS011;52756;52.826;6.214;2022-07-17T12:44:14;3.83;;;2.00;;
54937;SDS011;52756;52.826;6.214;2022-07-17T12:46:40;5.65;;;2.13;;
54937;SDS011;52756;52.826;6.214;2022-07-17T12:49:05;4.32;;;2.47;;
54937;SDS011;52756;52.826;6.214;2022-07-17T12:51:31;5.47;;;2.70;;
54937;SDS011;52756;52.826;6.214;2022-07-17T12:53:57;2.45;;;1.75;;
54937;SDS011;52756;52.826;6.214;2022-07-17T12:56:22;3.90;;;2.20;;
54937;SDS011;52756;52.826;6.214;2022-07-17T12:58:49;4.07;;;2.53;;
54937;SDS011;52756;52.826;6.214;2022-07-17T13:01:15;3.85;;;2.50;;
54937;SDS011;52756;52.826;6.214;2022-07-17T13:03:41;4.43;;;3.05;;
54937;SDS011;52756;52.826;6.214;2022-07-17T13:06:08;5.43;;;3.35;;
54937;SDS011;52756;52.826;6.214;2022-07-17T13:08:34;4.53;;;2.70;;
54937;SDS011;52756;52.826;6.214;2022-07-17T13:11:01;4.32;;;2.53;;
54937;SDS011;52756;52.826;6.214;2022-07-17T13:13:28;5.15;;;2.28;;
54937;SDS011;52756;52.826;6.214;2022-07-17T13:15:54;4.22;;;2.70;;
54937;SDS011;52756;52.826;6.214;2022-07-17T13:18:20;5.05;;;2.30;;
54937;SDS011;52756;52.826;6.214;2022-07-17T13:20:46;4.40;;;2.50;;
54937;SDS011;52756;52.826;6.214;2022-07-17T13:23:12;5.50;;;2.47;;
54937;SDS011;52756;52.826;6.214;2022-07-17T13:25:38;3.88;;;2.38;;
54937;SDS011;52756;52.826;6.214;2022-07-17T13:28:05;5.07;;;2.22;;
54937;SDS011;52756;52.826;6.214;2022-07-17T13:30:32;3.67;;;2.17;;
54937;SDS011;52756;52.826;6.214;2022-07-17T13:32:58;4.43;;;2.10;;
54937;SDS011;52756;52.826;6.214;2022-07-17T13:35:25;3.80;;;2.17;;
54937;SDS011;52756;52.826;6.214;2022-07-17T13:37:50;3.63;;;2.42;;
54937;SDS011;52756;52.826;6.214;2022-07-17T13:40:16;4.25;;;2.15;;
54937;SDS011;52756;52.826;6.214;2022-07-17T13:42:44;3.53;;;2.10;;
54937;SDS011;52756;52.826;6.214;2022-07-17T13:45:10;3.72;;;2.08;;
54937;SDS011;52756;52.826;6.214;2022-07-17T13:47:36;4.22;;;2.15;;
54937;SDS011;52756;52.826;6.214;2022-07-17T13:50:02;3.30;;;2.00;;
54937;SDS011;52756;52.826;6.214;2022-07-17T13:52:29;5.75;;;2.40;;
54937;SDS011;52756;52.826;6.214;2022-07-17T13:54:55;5.95;;;2.70;;
54937;SDS011;52756;52.826;6.214;2022-07-17T13:57:20;4.57;;;2.53;;
54937;SDS011;52756;52.826;6.214;2022-07-17T13:59:46;4.03;;;2.25;;
54937;SDS011;52756;52.826;6.214;2022-07-17T14:02:12;3.63;;;2.42;;
54937;SDS011;52756;52.826;6.214;2022-07-17T14:04:37;4.25;;;3.10;;
54937;SDS011;52756;52.826;6.214;2022-07-17T14:07:03;5.38;;;3.50;;
54937;SDS011;52756;52.826;6.214;2022-07-17T14:09:29;6.78;;;3.22;;
54937;SDS011;52756;52.826;6.214;2022-07-17T14:11:54;6.20;;;3.05;;
54937;SDS011;52756;52.826;6.214;2022-07-17T14:14:20;5.63;;;3.55;;
54937;SDS011;52756;52.826;6.214;2022-07-17T14:16:46;4.88;;;3.47;;
54937;SDS011;52756;52.826;6.214;2022-07-17T14:19:11;4.45;;;3.58;;
54937;SDS011;52756;52.826;6.214;2022-07-17T14:21:37;5.07;;;3.22;;
54937;SDS011;52756;52.826;6.214;2022-07-17T14:24:04;4.13;;;3.10;;
54937;SDS011;52756;52.826;6.214;2022-07-17T14:26:31;5.93;;;3.60;;
54937;SDS011;52756;52.826;6.214;2022-07-17T14:28:57;5.63;;;3.15;;
54937;SDS011;52756;52.826;6.214;2022-07-17T14:31:23;7.65;;;3.65;;
54937;SDS011;52756;52.826;6.214;2022-07-17T14:33:49;5.20;;;3.25;;
54937;SDS011;52756;52.826;6.214;2022-07-17T14:36:15;5.78;;;3.53;;
54937;SDS011;52756;52.826;6.214;2022-07-17T14:38:41;5.70;;;3.20;;
54937;SDS011;52756;52.826;6.214;2022-07-17T14:41:07;5.50;;;3.30;;
54937;SDS011;52756;52.826;6.214;2022-07-17T14:43:33;4.53;;;3.00;;
54937;SDS011;52756;52.826;6.214;2022-07-17T14:45:59;6.93;;;3.28;;
54937;SDS011;52756;52.826;6.214;2022-07-17T14:48:24;7.57;;;4.22;;
54937;SDS011;52756;52.826;6.214;2022-07-17T14:50:50;6.40;;;3.83;;
54937;SDS011;52756;52.826;6.214;2022-07-17T14:53:15;5.72;;;3.67;;
54937;SDS011;52756;52.826;6.214;2022-07-17T14:55:41;7.20;;;3.60;;
54937;SDS011;52756;52.826;6.214;2022-07-17T14:58:07;5.25;;;3.25;;